createdAt,value
2017-07-25T00:01:53.515Z,2.40
2017-07-25T00:04:21.017Z,2.63
2017-07-25T00:06:48.514Z,2.20
2017-07-25T00:09:16.015Z,2.30
2017-07-25T00:11:44.254Z,2.43
2017-07-25T00:14:11.758Z,2.83
2017-07-25T00:16:39.222Z,2.43
2017-07-25T00:19:06.692Z,2.73
2017-07-25T00:21:34.198Z,2.50
2017-07-25T00:24:01.683Z,2.50
2017-07-25T00:26:29.924Z,2.37
2017-07-25T00:28:57.405Z,2.50
2017-07-25T00:31:25.661Z,2.27
2017-07-25T00:33:53.138Z,2.60
2017-07-25T00:36:20.636Z,1.70
2017-07-25T00:38:48.111Z,1.80
2017-07-25T00:41:15.599Z,1.40
2017-07-25T00:43:43.088Z,1.53
2017-07-25T00:46:10.569Z,1.40
2017-07-25T00:48:38.055Z,1.40
2017-07-25T00:51:05.529Z,1.37
2017-07-25T00:53:33.113Z,1.30
2017-07-25T00:56:00.602Z,1.67
2017-07-25T00:58:28.086Z,1.30
2017-07-25T01:00:55.571Z,1.43
2017-07-25T01:03:23.826Z,1.40
2017-07-25T01:05:51.294Z,1.30
2017-07-25T01:08:18.780Z,1.30
2017-07-25T01:10:46.249Z,1.47
2017-07-25T01:13:13.776Z,1.10
2017-07-25T01:15:42.018Z,1.20
2017-07-25T01:18:09.503Z,1.20
2017-07-25T01:20:36.997Z,1.00
2017-07-25T01:23:04.476Z,1.20
2017-07-25T01:25:31.992Z,1.40
2017-07-25T01:28:01.045Z,1.30
2017-07-25T01:30:28.526Z,1.10
2017-07-25T01:32:56.011Z,1.23
2017-07-25T01:35:24.468Z,1.20
2017-07-25T01:37:51.949Z,1.20
2017-07-25T01:40:20.215Z,1.13
2017-07-25T01:42:48.464Z,1.30
2017-07-25T01:45:15.936Z,1.30
2017-07-25T01:47:43.424Z,1.20
2017-07-25T01:50:10.901Z,1.13
2017-07-25T01:52:38.544Z,1.30
2017-07-25T01:55:06.023Z,1.10
2017-07-25T01:57:33.512Z,1.00
2017-07-25T02:00:00.993Z,2.03
2017-07-25T02:02:29.842Z,1.20
2017-07-25T02:04:57.312Z,1.00
2017-07-25T02:07:24.848Z,1.10
2017-07-25T02:09:52.362Z,1.13
2017-07-25T02:12:20.604Z,1.10
2017-07-25T02:14:48.089Z,1.30
2017-07-25T02:17:15.549Z,1.10
2017-07-25T02:19:43.801Z,1.10
2017-07-25T02:22:11.281Z,1.00
2017-07-25T02:24:39.544Z,1.00
2017-07-25T02:27:07.018Z,1.00
2017-07-25T02:29:35.322Z,1.00
2017-07-25T02:32:02.802Z,1.10
2017-07-25T02:34:30.267Z,1.10
2017-07-25T02:36:57.778Z,1.20
2017-07-25T02:39:25.267Z,1.00
2017-07-25T02:41:52.764Z,1.00
2017-07-25T02:44:20.230Z,1.00
2017-07-25T02:46:47.732Z,1.10
2017-07-25T02:49:15.218Z,1.10
2017-07-25T02:51:42.716Z,1.10
2017-07-25T02:54:10.987Z,1.30
2017-07-25T02:56:40.197Z,1.40
2017-07-25T02:59:08.439Z,1.20
2017-07-25T03:01:35.908Z,1.23
2017-07-25T03:04:03.385Z,1.47
2017-07-25T03:06:31.642Z,1.43
2017-07-25T03:08:59.124Z,1.47
2017-07-25T03:11:27.374Z,1.60
2017-07-25T03:13:54.843Z,2.17
2017-07-25T03:16:22.307Z,2.10
2017-07-25T03:18:50.579Z,3.57
2017-07-25T03:21:19.298Z,2.10
2017-07-25T03:24:03.661Z,1.70
2017-07-25T03:26:31.159Z,2.00
2017-07-25T03:28:58.638Z,1.90
2017-07-25T03:31:26.876Z,2.20
2017-07-25T03:33:54.410Z,2.07
2017-07-25T03:36:22.540Z,2.10
2017-07-25T03:38:50.931Z,2.00
2017-07-25T03:41:19.195Z,2.10
2017-07-25T03:43:46.686Z,2.53
2017-07-25T03:46:14.181Z,2.40
2017-07-25T03:48:42.435Z,2.77
2017-07-25T03:51:09.920Z,3.07
2017-07-25T03:53:37.381Z,2.40
2017-07-25T03:56:05.602Z,3.07
2017-07-25T03:58:33.075Z,2.77
2017-07-25T04:01:01.561Z,2.73
2017-07-25T04:03:29.058Z,3.67
2017-07-25T04:05:56.533Z,2.97
2017-07-25T04:08:24.026Z,3.77
2017-07-25T04:10:51.515Z,3.60
2017-07-25T04:16:11.909Z,3.60
2017-07-25T04:18:39.415Z,4.07
2017-07-25T04:21:06.889Z,4.33
2017-07-25T04:23:35.432Z,4.10
2017-07-25T04:26:02.905Z,3.83
2017-07-25T04:28:30.410Z,4.30
2017-07-25T04:30:57.890Z,4.40
2017-07-25T04:33:25.368Z,4.50
2017-07-25T04:35:52.857Z,4.43
2017-07-25T04:38:21.113Z,4.70
2017-07-25T04:43:42.975Z,4.77
2017-07-25T04:46:11.251Z,4.47
2017-07-25T04:48:39.507Z,4.47
2017-07-25T04:51:07.005Z,4.30
2017-07-25T04:53:34.499Z,4.70
2017-07-25T04:56:01.979Z,4.33
2017-07-25T04:58:29.453Z,3.90
2017-07-25T05:00:57.144Z,4.30
2017-07-25T05:03:24.634Z,4.30
2017-07-25T05:05:52.118Z,4.70
2017-07-25T05:08:19.589Z,4.60
2017-07-25T05:10:47.160Z,4.40
2017-07-25T05:13:15.420Z,4.80
2017-07-25T05:15:53.705Z,5.47
2017-07-25T05:18:33.139Z,5.40
2017-07-25T05:21:00.629Z,4.30
2017-07-25T05:23:28.114Z,4.23
2017-07-25T05:25:55.590Z,4.00
2017-07-25T05:28:23.108Z,4.53
2017-07-25T05:30:50.577Z,4.93
2017-07-25T05:33:19.054Z,4.40
2017-07-25T05:35:48.181Z,4.80
2017-07-25T05:38:16.476Z,5.00
2017-07-25T05:40:43.974Z,5.40
2017-07-25T05:43:11.478Z,4.43
2017-07-25T05:45:38.989Z,4.20
2017-07-25T05:48:06.465Z,4.10
2017-07-25T05:50:34.716Z,3.97
2017-07-25T05:53:02.181Z,4.07
2017-07-25T06:08:34.711Z,4.93
2017-07-25T06:11:02.187Z,4.07
2017-07-25T06:13:29.793Z,3.90
2017-07-25T06:18:50.772Z,4.10
2017-07-25T06:21:18.251Z,4.60
2017-07-25T06:23:46.528Z,3.93
2017-07-25T06:26:13.998Z,4.57
2017-07-25T06:28:42.234Z,4.60
2017-07-25T06:31:09.734Z,4.60
2017-07-25T06:33:48.393Z,4.47
2017-07-25T06:36:15.869Z,4.33
2017-07-25T06:38:43.373Z,4.50
2017-07-25T06:41:34.682Z,4.50
2017-07-25T06:44:02.949Z,5.23
2017-07-25T06:46:31.186Z,4.90
2017-07-25T06:48:58.673Z,5.80
2017-07-25T06:51:26.159Z,5.10
2017-07-25T06:53:53.639Z,5.70
2017-07-25T06:56:21.128Z,5.27
2017-07-25T06:58:48.609Z,5.67
2017-07-25T07:01:16.884Z,5.03
2017-07-25T07:03:45.158Z,5.70
2017-07-25T07:06:12.729Z,5.50
2017-07-25T07:08:40.966Z,6.33
2017-07-25T07:11:09.799Z,5.60
2017-07-25T07:13:38.042Z,6.60
2017-07-25T07:16:05.542Z,6.70
2017-07-25T07:18:33.050Z,6.60
2017-07-25T07:21:00.541Z,7.10
2017-07-25T07:23:28.801Z,6.20
2017-07-25T07:25:56.270Z,6.93
2017-07-25T07:28:23.760Z,6.63
2017-07-25T07:30:51.251Z,6.70
2017-07-25T07:33:18.740Z,7.40
2017-07-25T07:35:46.223Z,7.60
2017-07-25T07:38:13.773Z,7.30
2017-07-25T07:40:42.008Z,6.67
2017-07-25T07:43:09.498Z,6.47
2017-07-25T07:45:38.372Z,6.40
2017-07-25T07:48:05.866Z,6.30
2017-07-25T07:50:33.346Z,6.33
2017-07-25T07:53:00.823Z,5.90
2017-07-25T07:55:28.311Z,7.17
2017-07-25T07:57:55.792Z,5.77
2017-07-25T08:00:23.272Z,6.77
2017-07-25T08:02:50.749Z,5.97
2017-07-25T08:05:18.259Z,6.00
2017-07-25T08:07:46.495Z,6.40
2017-07-25T08:10:13.970Z,6.60
2017-07-25T08:12:41.445Z,5.13
2017-07-25T08:15:09.698Z,6.37
2017-07-25T08:17:37.173Z,6.13
2017-07-25T08:20:04.661Z,6.43
2017-07-25T08:22:32.148Z,6.33
2017-07-25T08:24:59.623Z,6.37
2017-07-25T08:27:33.577Z,6.33
2017-07-25T08:30:01.037Z,6.50
2017-07-25T08:32:28.537Z,7.17
2017-07-25T08:34:56.010Z,6.77
2017-07-25T08:37:23.502Z,7.73
2017-07-25T08:39:51.736Z,7.27
2017-07-25T08:42:19.241Z,6.57
2017-07-25T08:44:46.726Z,6.53
2017-07-25T08:47:14.213Z,6.50
2017-07-25T08:49:41.693Z,7.00
2017-07-25T08:52:09.937Z,6.97
2017-07-25T08:54:37.435Z,7.20
2017-07-25T08:57:05.676Z,6.70
2017-07-25T08:59:33.184Z,6.70
2017-07-25T09:02:00.655Z,6.33
2017-07-25T09:04:28.137Z,5.73
2017-07-25T09:06:55.619Z,6.60
2017-07-25T09:09:23.117Z,5.97
2017-07-25T09:14:44.653Z,5.07
2017-07-25T09:17:12.129Z,5.40
2017-07-25T09:19:39.596Z,4.90
2017-07-25T09:22:07.103Z,4.23
2017-07-25T09:24:34.575Z,4.93
2017-07-25T09:27:02.834Z,5.33
2017-07-25T09:29:30.305Z,4.80
2017-07-25T09:31:58.567Z,5.33
2017-07-25T09:34:26.802Z,5.90
2017-07-25T09:36:54.280Z,5.50
2017-07-25T09:39:21.760Z,5.20
2017-07-25T09:41:49.266Z,5.27
2017-07-25T09:44:16.743Z,5.80
2017-07-25T09:46:44.237Z,5.50
2017-07-25T09:49:13.370Z,5.70
2017-07-25T09:51:40.851Z,5.93
2017-07-25T09:54:08.327Z,5.50
2017-07-25T09:56:36.617Z,5.50
2017-07-25T09:59:04.120Z,5.90
2017-07-25T10:01:53.338Z,6.00
2017-07-25T10:04:21.610Z,5.50
2017-07-25T10:06:49.087Z,5.23
2017-07-25T10:09:17.365Z,5.83
2017-07-25T10:11:45.614Z,5.00
2017-07-25T10:14:13.122Z,4.80
2017-07-25T10:16:40.609Z,4.77
2017-07-25T10:19:08.108Z,4.60
2017-07-25T10:21:36.362Z,4.93
2017-07-25T10:26:57.604Z,5.07
2017-07-25T10:29:25.065Z,4.80
2017-07-25T10:31:52.562Z,5.17
2017-07-25T10:34:20.035Z,5.30
2017-07-25T10:36:54.976Z,4.90
2017-07-25T10:45:08.288Z,4.33
2017-07-25T10:50:29.526Z,4.00
2017-07-25T10:52:57.809Z,3.53
2017-07-25T11:01:14.009Z,4.53
2017-07-25T11:03:41.531Z,4.10
2017-07-25T11:06:09.023Z,3.90
2017-07-25T11:08:36.524Z,4.57
2017-07-25T11:11:23.853Z,4.53
2017-07-25T11:13:51.347Z,5.07
2017-07-25T11:16:24.670Z,4.77
2017-07-25T11:18:53.432Z,4.53
2017-07-25T11:24:13.654Z,5.60
2017-07-25T11:26:41.133Z,5.30
2017-07-25T11:29:09.402Z,4.70
2017-07-25T11:31:36.882Z,5.20
2017-07-25T11:34:04.399Z,4.83
2017-07-25T11:36:31.895Z,4.00
2017-07-25T11:39:00.147Z,3.57
2017-07-25T11:41:27.651Z,4.57
2017-07-25T11:43:55.142Z,4.20
2017-07-25T11:46:22.626Z,3.90
2017-07-25T11:48:50.097Z,3.67
2017-07-25T11:51:22.305Z,4.03
2017-07-25T11:53:49.794Z,3.80
2017-07-25T11:56:17.289Z,3.70
2017-07-25T11:58:45.545Z,4.13
2017-07-25T12:01:14.017Z,3.07
2017-07-25T12:03:41.502Z,3.70
2017-07-25T12:06:09.769Z,3.40
2017-07-25T12:08:38.017Z,3.17
2017-07-25T12:11:11.841Z,2.97
2017-07-25T12:13:39.318Z,3.40
2017-07-25T12:16:07.554Z,2.90
2017-07-25T12:18:35.039Z,3.37
2017-07-25T12:21:14.285Z,3.17
2017-07-25T12:23:43.515Z,2.80
2017-07-25T12:26:11.038Z,3.20
2017-07-25T12:28:39.294Z,3.00
2017-07-25T12:31:06.779Z,3.50
2017-07-25T12:33:35.028Z,3.20
2017-07-25T12:36:02.513Z,2.70
2017-07-25T12:38:30.765Z,2.63
2017-07-25T12:40:58.237Z,2.30
2017-07-25T12:43:29.753Z,2.80
2017-07-25T12:45:57.251Z,3.10
2017-07-25T12:48:25.489Z,2.90
2017-07-25T12:50:52.996Z,3.00
2017-07-25T12:53:20.492Z,3.70
2017-07-25T12:55:47.976Z,3.50
2017-07-25T12:58:15.474Z,2.73
2017-07-25T13:00:54.815Z,3.03
2017-07-25T13:03:28.226Z,3.00
2017-07-25T13:05:55.743Z,3.07
2017-07-25T13:08:23.991Z,3.07
2017-07-25T13:10:51.460Z,3.70
2017-07-25T13:13:18.956Z,2.90
2017-07-25T13:15:46.453Z,3.00
2017-07-25T13:18:13.946Z,3.10
2017-07-25T13:20:41.422Z,3.33
2017-07-25T13:23:08.934Z,3.00
2017-07-25T13:25:36.404Z,2.83
2017-07-25T13:28:03.903Z,2.50
2017-07-25T13:30:31.393Z,2.43
2017-07-25T13:32:58.874Z,2.30
2017-07-25T13:35:26.353Z,2.33
2017-07-25T13:37:54.597Z,2.80
2017-07-25T13:40:22.096Z,2.80
2017-07-25T13:42:50.337Z,2.67
2017-07-25T13:45:17.810Z,2.83
2017-07-25T13:47:45.301Z,2.57
2017-07-25T13:50:13.377Z,2.50
2017-07-25T13:52:40.878Z,2.90
2017-07-25T13:55:08.357Z,2.90
2017-07-25T13:57:35.861Z,3.37
2017-07-25T14:00:05.013Z,2.80
2017-07-25T14:05:23.615Z,3.90
2017-07-25T14:07:51.114Z,2.60
2017-07-25T14:10:18.582Z,3.20
2017-07-25T14:12:46.066Z,3.10
2017-07-25T14:15:14.306Z,3.20
2017-07-25T14:17:41.822Z,3.47
2017-07-25T14:20:09.308Z,2.90
2017-07-25T14:22:36.781Z,3.40
2017-07-25T14:25:04.284Z,4.37
2017-07-25T14:27:32.558Z,4.07
2017-07-25T14:30:00.986Z,4.27
2017-07-25T14:32:28.472Z,3.90
2017-07-25T14:34:55.961Z,4.30
2017-07-25T14:37:24.198Z,4.00
2017-07-25T14:39:51.705Z,3.83
2017-07-25T14:42:19.194Z,3.70
2017-07-25T14:44:46.681Z,3.80
2017-07-25T14:47:14.153Z,3.50
2017-07-25T14:49:42.408Z,3.47
2017-07-25T14:52:09.888Z,3.57
2017-07-25T14:54:38.142Z,3.93
2017-07-25T14:57:05.654Z,4.70
2017-07-25T14:59:33.166Z,3.70
2017-07-25T15:02:00.653Z,4.13
2017-07-25T15:04:28.891Z,3.70
2017-07-25T15:06:56.391Z,4.07
2017-07-25T15:09:24.657Z,4.87
2017-07-25T15:11:52.932Z,4.77
2017-07-25T15:14:21.173Z,5.40
2017-07-25T15:16:48.670Z,5.30
2017-07-25T15:19:16.915Z,6.20
2017-07-25T15:21:44.419Z,5.70
2017-07-25T15:24:11.901Z,5.63
2017-07-25T15:26:39.399Z,5.50
2017-07-25T15:29:06.881Z,5.57
2017-07-25T15:31:34.374Z,6.37
2017-07-25T15:34:01.890Z,5.20
2017-07-25T15:36:30.124Z,6.27
2017-07-25T15:38:57.605Z,5.40
2017-07-25T15:41:25.082Z,5.60
2017-07-25T15:43:53.389Z,6.27
2017-07-25T15:46:20.881Z,5.80
2017-07-25T15:48:48.379Z,6.07
2017-07-25T15:51:16.625Z,5.47
2017-07-25T15:53:44.467Z,6.43
2017-07-25T15:56:11.935Z,5.43
2017-07-25T15:58:39.395Z,5.30
2017-07-25T16:01:06.891Z,5.10
2017-07-25T16:03:35.141Z,4.73
2017-07-25T16:06:02.657Z,4.43
2017-07-25T16:08:30.131Z,3.80
2017-07-25T16:10:57.616Z,4.33
2017-07-25T16:13:25.083Z,3.53
2017-07-25T16:15:52.570Z,3.60
2017-07-25T16:18:20.047Z,3.47
2017-07-25T16:20:47.533Z,4.10
2017-07-25T16:23:15.005Z,3.67
2017-07-25T16:25:42.479Z,4.30
2017-07-25T16:28:10.755Z,4.10
2017-07-25T16:30:39.013Z,3.27
2017-07-25T16:33:06.492Z,3.73
2017-07-25T16:35:34.730Z,3.40
2017-07-25T16:38:02.222Z,4.40
2017-07-25T16:40:30.461Z,3.80
2017-07-25T16:42:57.945Z,3.60
2017-07-25T16:45:26.183Z,3.40
2017-07-25T16:47:53.679Z,3.80
2017-07-25T16:50:21.159Z,3.70
2017-07-25T16:52:48.659Z,3.70
2017-07-25T16:55:16.142Z,3.60
2017-07-25T16:57:43.610Z,3.73
2017-07-25T17:00:11.090Z,3.67
2017-07-25T17:02:39.330Z,3.47
2017-07-25T17:05:06.856Z,3.83
2017-07-25T17:07:34.333Z,4.67
2017-07-25T17:10:01.832Z,3.50
2017-07-25T17:12:30.074Z,4.57
2017-07-25T17:14:57.590Z,3.90
2017-07-25T17:17:25.954Z,3.70
2017-07-25T17:19:54.179Z,3.50
2017-07-25T17:22:21.879Z,3.67
2017-07-25T17:24:50.109Z,3.77
2017-07-25T17:27:17.600Z,3.33
2017-07-25T17:29:45.090Z,3.50
2017-07-25T17:32:12.583Z,4.27
2017-07-25T17:34:40.044Z,3.53
2017-07-25T17:37:07.545Z,3.70
2017-07-25T17:39:35.784Z,3.40
2017-07-25T17:42:03.265Z,3.40
2017-07-25T17:44:30.777Z,3.63
2017-07-25T17:46:58.262Z,3.10
2017-07-25T17:49:25.747Z,3.57
2017-07-25T17:51:53.986Z,4.20
2017-07-25T17:54:21.462Z,3.63
2017-07-25T17:56:48.950Z,3.50
2017-07-25T17:59:17.210Z,4.50
2017-07-25T18:01:44.680Z,3.87
2017-07-25T18:04:12.950Z,3.67
2017-07-25T18:06:41.207Z,3.90
2017-07-25T18:09:08.677Z,3.93
2017-07-25T18:11:36.167Z,4.33
2017-07-25T18:14:03.630Z,4.97
2017-07-25T18:16:31.121Z,3.53
2017-07-25T18:18:58.606Z,3.67
2017-07-25T18:21:26.085Z,3.33
2017-07-25T18:23:54.316Z,3.87
2017-07-25T18:26:21.806Z,3.63
2017-07-25T18:28:50.039Z,3.97
2017-07-25T18:31:17.540Z,3.60
2017-07-25T18:33:45.796Z,3.63
2017-07-25T18:36:13.265Z,4.20
2017-07-25T18:38:40.759Z,4.00
2017-07-25T18:41:08.256Z,4.00
2017-07-25T18:43:35.736Z,3.30
2017-07-25T18:46:03.210Z,3.53
2017-07-25T18:48:31.452Z,3.80
2017-07-25T18:51:01.194Z,3.60
2017-07-25T18:53:29.467Z,2.90
2017-07-25T18:55:57.715Z,2.93
2017-07-25T18:58:25.204Z,2.93
2017-07-25T19:00:53.438Z,2.47
2017-07-25T19:03:20.931Z,3.00
2017-07-25T19:05:49.198Z,2.60
2017-07-25T19:08:16.690Z,2.80
2017-07-25T19:10:44.190Z,2.77
2017-07-25T19:13:11.665Z,2.80
2017-07-25T19:15:39.140Z,2.73
2017-07-25T19:18:07.403Z,2.90
2017-07-25T19:20:34.943Z,3.03
2017-07-25T19:23:02.411Z,2.93
2017-07-25T19:25:29.891Z,3.13
2017-07-25T19:27:58.137Z,2.87
2017-07-25T19:30:25.629Z,2.80
2017-07-25T19:32:53.863Z,2.90
2017-07-25T19:35:21.415Z,3.23
2017-07-25T19:37:48.885Z,2.47
2017-07-25T19:40:16.354Z,2.73
2017-07-25T19:42:43.857Z,2.73
2017-07-25T19:45:11.326Z,2.57
2017-07-25T19:47:39.410Z,2.70
2017-07-25T19:50:06.896Z,2.43
2017-07-25T19:52:34.391Z,2.70
2017-07-25T19:55:02.638Z,2.57
2017-07-25T19:57:30.118Z,2.60
2017-07-25T19:59:58.357Z,2.30
2017-07-25T20:02:25.847Z,2.20
2017-07-25T20:04:53.406Z,2.63
2017-07-25T20:07:21.675Z,2.53
2017-07-25T20:09:49.148Z,2.60
2017-07-25T20:12:17.412Z,2.67
2017-07-25T20:14:44.894Z,2.60
2017-07-25T20:17:12.374Z,2.50
2017-07-25T20:19:39.886Z,2.37
2017-07-25T20:22:08.133Z,2.67
2017-07-25T20:24:35.614Z,2.73
2017-07-25T20:27:03.086Z,3.00
2017-07-25T20:29:31.345Z,3.20
2017-07-25T20:31:58.822Z,3.10
2017-07-25T20:34:27.080Z,3.17
2017-07-25T20:36:55.041Z,3.13
2017-07-25T20:39:22.544Z,2.93
2017-07-25T20:41:50.035Z,3.40
2017-07-25T20:44:17.507Z,3.87
2017-07-25T20:46:45.004Z,4.10
2017-07-25T20:49:12.483Z,4.33
2017-07-25T20:51:39.986Z,3.73
2017-07-25T20:54:07.463Z,4.00
2017-07-25T20:56:35.717Z,4.37
2017-07-25T20:59:03.249Z,4.53
2017-07-25T21:01:30.727Z,3.90
2017-07-25T21:03:58.215Z,4.47
2017-07-25T21:06:26.465Z,3.70
2017-07-25T21:08:53.945Z,4.60
2017-07-25T21:11:21.424Z,4.30
2017-07-25T21:13:48.906Z,4.30
2017-07-25T21:16:16.374Z,4.40
2017-07-25T21:18:43.889Z,3.80
2017-07-25T21:21:12.144Z,3.80
2017-07-25T21:23:39.640Z,4.23
2017-07-25T21:26:07.117Z,4.20
2017-07-25T21:28:34.612Z,4.47
2017-07-25T21:31:02.084Z,4.27
2017-07-25T21:33:30.349Z,4.77
2017-07-25T21:35:57.809Z,4.40
2017-07-25T21:38:25.322Z,4.47
2017-07-25T21:40:52.816Z,4.90
2017-07-25T21:43:20.294Z,3.93
2017-07-25T21:45:48.546Z,3.60
2017-07-25T21:48:16.026Z,3.47
2017-07-25T21:50:44.288Z,4.07
2017-07-25T21:53:11.782Z,4.17
2017-07-25T21:55:39.268Z,3.77
2017-07-25T21:58:06.736Z,3.23
2017-07-25T22:00:34.221Z,3.47
2017-07-25T22:03:13.813Z,3.80
2017-07-25T22:05:41.319Z,3.13
2017-07-25T22:08:08.821Z,3.80
2017-07-25T22:10:36.308Z,3.63
2017-07-25T22:13:03.774Z,3.70
2017-07-25T22:15:31.249Z,3.50
2017-07-25T22:17:59.543Z,3.20
2017-07-25T22:20:27.832Z,3.77
2017-07-25T22:22:55.318Z,3.30
2017-07-25T22:25:22.798Z,3.60
2017-07-25T22:27:50.281Z,3.30
2017-07-25T22:30:17.757Z,3.50
2017-07-25T22:32:46.128Z,2.97
2017-07-25T22:35:14.368Z,3.27
2017-07-25T22:37:41.870Z,2.73
2017-07-25T22:40:10.117Z,2.77
2017-07-25T22:42:37.594Z,3.30
2017-07-25T22:45:05.841Z,2.70
2017-07-25T22:47:33.334Z,2.90
2017-07-25T22:50:01.652Z,3.03
2017-07-25T22:52:29.182Z,2.77
2017-07-25T22:54:57.417Z,2.70
2017-07-25T22:57:24.885Z,2.70
2017-07-25T22:59:52.369Z,2.80
2017-07-25T23:02:20.633Z,3.37
2017-07-25T23:04:48.897Z,2.90
2017-07-25T23:07:16.371Z,3.07
2017-07-25T23:09:44.632Z,3.30
2017-07-25T23:12:12.111Z,2.60
2017-07-25T23:14:40.383Z,2.93
2017-07-25T23:17:08.626Z,2.80
2017-07-25T23:19:36.109Z,2.83
2017-07-25T23:22:04.355Z,2.90
2017-07-25T23:24:31.850Z,2.37
2017-07-25T23:27:00.106Z,2.20
2017-07-25T23:29:27.586Z,2.00
2017-07-25T23:31:55.836Z,2.10
2017-07-25T23:34:23.317Z,2.40
2017-07-25T23:36:51.564Z,2.30
2017-07-25T23:39:19.037Z,1.90
2017-07-25T23:41:47.295Z,1.97
2017-07-25T23:44:14.768Z,1.97
2017-07-25T23:46:42.370Z,1.90
2017-07-25T23:49:09.854Z,2.00
2017-07-25T23:51:37.333Z,1.67
2017-07-25T23:54:04.831Z,1.73
2017-07-25T23:56:32.364Z,1.97
2017-07-25T23:58:59.853Z,1.60
